sensor_id;sensor_type;location;lat;lon;timestamp;P1;durP1;ratioP1;P2;durP2;ratioP2
56381;SDS011;50261;51.150;4.470;2023-07-22T00:00:47;14.45;;;7.75;;
56381;SDS011;50261;51.150;4.470;2023-07-22T00:03:12;10.57;;;7.65;;
56381;SDS011;50261;51.150;4.470;2023-07-22T00:05:39;12.55;;;7.72;;
56381;SDS011;50261;51.150;4.470;2023-07-22T00:08:05;10.30;;;7.32;;
56381;SDS011;50261;51.150;4.470;2023-07-22T00:10:31;11.07;;;7.80;;
56381;SDS011;50261;51.150;4.470;2023-07-22T00:12:56;13.07;;;7.65;;
56381;SDS011;50261;51.150;4.470;2023-07-22T00:15:22;12.63;;;7.70;;
56381;SDS011;50261;51.150;4.470;2023-07-22T00:17:49;13.73;;;7.93;;
56381;SDS011;50261;51.150;4.470;2023-07-22T00:20:16;11.88;;;8.02;;
56381;SDS011;50261;51.150;4.470;2023-07-22T00:22:41;12.63;;;7.82;;
56381;SDS011;50261;51.150;4.470;2023-07-22T00:25:09;9.82;;;7.22;;
56381;SDS011;50261;51.150;4.470;2023-07-22T00:27:39;12.10;;;7.75;;
56381;SDS011;50261;51.150;4.470;2023-07-22T00:30:05;12.48;;;8.20;;
56381;SDS011;50261;51.150;4.470;2023-07-22T00:32:31;12.50;;;7.80;;
56381;SDS011;50261;51.150;4.470;2023-07-22T00:34:57;10.70;;;7.82;;
56381;SDS011;50261;51.150;4.470;2023-07-22T00:37:23;13.07;;;8.52;;
56381;SDS011;50261;51.150;4.470;2023-07-22T00:39:48;14.68;;;8.00;;
56381;SDS011;50261;51.150;4.470;2023-07-22T00:42:14;18.35;;;7.93;;
56381;SDS011;50261;51.150;4.470;2023-07-22T00:44:40;11.63;;;7.57;;
56381;SDS011;50261;51.150;4.470;2023-07-22T00:47:06;10.95;;;6.95;;
56381;SDS011;50261;51.150;4.470;2023-07-22T00:49:31;11.35;;;7.70;;
56381;SDS011;50261;51.150;4.470;2023-07-22T00:51:59;11.30;;;7.35;;
56381;SDS011;50261;51.150;4.470;2023-07-22T00:54:27;11.88;;;8.05;;
56381;SDS011;50261;51.150;4.470;2023-07-22T00:56:53;10.85;;;7.60;;
56381;SDS011;50261;51.150;4.470;2023-07-22T00:59:19;9.73;;;7.20;;
56381;SDS011;50261;51.150;4.470;2023-07-22T01:01:45;11.80;;;7.88;;
56381;SDS011;50261;51.150;4.470;2023-07-22T01:04:13;17.08;;;7.60;;
56381;SDS011;50261;51.150;4.470;2023-07-22T01:06:39;14.10;;;7.40;;
56381;SDS011;50261;51.150;4.470;2023-07-22T01:09:05;15.35;;;7.90;;
56381;SDS011;50261;51.150;4.470;2023-07-22T01:11:32;10.50;;;7.60;;
56381;SDS011;50261;51.150;4.470;2023-07-22T01:13:58;14.90;;;8.38;;
56381;SDS011;50261;51.150;4.470;2023-07-22T01:16:25;14.55;;;8.05;;
56381;SDS011;50261;51.150;4.470;2023-07-22T01:18:52;12.23;;;7.82;;
56381;SDS011;50261;51.150;4.470;2023-07-22T01:21:18;12.98;;;7.75;;
56381;SDS011;50261;51.150;4.470;2023-07-22T01:23:46;15.43;;;10.50;;
56381;SDS011;50261;51.150;4.470;2023-07-22T01:26:12;12.13;;;8.30;;
56381;SDS011;50261;51.150;4.470;2023-07-22T01:28:38;16.77;;;8.32;;
56381;SDS011;50261;51.150;4.470;2023-07-22T01:31:03;11.35;;;7.38;;
56381;SDS011;50261;51.150;4.470;2023-07-22T01:33:31;13.82;;;7.78;;
56381;SDS011;50261;51.150;4.470;2023-07-22T01:35:57;12.23;;;8.15;;
56381;SDS011;50261;51.150;4.470;2023-07-22T01:38:23;11.90;;;7.65;;
56381;SDS011;50261;51.150;4.470;2023-07-22T01:40:48;13.82;;;8.27;;
56381;SDS011;50261;51.150;4.470;2023-07-22T01:43:14;14.93;;;8.82;;
56381;SDS011;50261;51.150;4.470;2023-07-22T01:45:39;11.68;;;8.65;;
56381;SDS011;50261;51.150;4.470;2023-07-22T01:48:05;15.07;;;8.02;;
56381;SDS011;50261;51.150;4.470;2023-07-22T01:50:31;16.27;;;8.30;;
56381;SDS011;50261;51.150;4.470;2023-07-22T01:52:57;11.52;;;8.07;;
56381;SDS011;50261;51.150;4.470;2023-07-22T01:55:23;13.85;;;8.38;;
56381;SDS011;50261;51.150;4.470;2023-07-22T01:57:49;15.75;;;8.43;;
56381;SDS011;50261;51.150;4.470;2023-07-22T02:00:15;15.82;;;8.88;;
56381;SDS011;50261;51.150;4.470;2023-07-22T02:02:42;11.68;;;7.32;;
56381;SDS011;50261;51.150;4.470;2023-07-22T02:05:08;12.60;;;7.57;;
56381;SDS011;50261;51.150;4.470;2023-07-22T02:07:37;11.95;;;7.65;;
56381;SDS011;50261;51.150;4.470;2023-07-22T02:10:04;14.40;;;8.98;;
56381;SDS011;50261;51.150;4.470;2023-07-22T02:12:30;12.40;;;7.95;;
56381;SDS011;50261;51.150;4.470;2023-07-22T02:14:56;13.25;;;7.88;;
56381;SDS011;50261;51.150;4.470;2023-07-22T02:17:21;11.88;;;8.13;;
56381;SDS011;50261;51.150;4.470;2023-07-22T02:19:49;17.25;;;8.50;;
56381;SDS011;50261;51.150;4.470;2023-07-22T02:22:15;15.20;;;9.32;;
56381;SDS011;50261;51.150;4.470;2023-07-22T02:24:40;16.38;;;8.23;;
56381;SDS011;50261;51.150;4.470;2023-07-22T02:27:06;17.67;;;8.57;;
56381;SDS011;50261;51.150;4.470;2023-07-22T02:29:34;11.80;;;8.00;;
56381;SDS011;50261;51.150;4.470;2023-07-22T02:32:00;12.82;;;8.23;;
56381;SDS011;50261;51.150;4.470;2023-07-22T02:34:26;15.45;;;9.68;;
56381;SDS011;50261;51.150;4.470;2023-07-22T02:36:52;14.18;;;8.50;;
56381;SDS011;50261;51.150;4.470;2023-07-22T02:39:18;12.43;;;8.32;;
56381;SDS011;50261;51.150;4.470;2023-07-22T02:41:43;15.25;;;8.93;;
56381;SDS011;50261;51.150;4.470;2023-07-22T02:44:09;15.07;;;8.63;;
56381;SDS011;50261;51.150;4.470;2023-07-22T02:46:35;15.93;;;9.15;;
56381;SDS011;50261;51.150;4.470;2023-07-22T02:49:00;15.60;;;8.27;;
56381;SDS011;50261;51.150;4.470;2023-07-22T02:51:26;13.32;;;8.50;;
56381;SDS011;50261;51.150;4.470;2023-07-22T02:53:52;14.85;;;8.40;;
56381;SDS011;50261;51.150;4.470;2023-07-22T02:56:18;15.35;;;7.97;;
56381;SDS011;50261;51.150;4.470;2023-07-22T02:58:43;15.40;;;8.27;;
56381;SDS011;50261;51.150;4.470;2023-07-22T03:01:09;17.10;;;8.52;;
56381;SDS011;50261;51.150;4.470;2023-07-22T03:03:36;14.77;;;8.70;;
56381;SDS011;50261;51.150;4.470;2023-07-22T03:06:02;14.43;;;8.77;;
56381;SDS011;50261;51.150;4.470;2023-07-22T03:08:28;10.60;;;7.78;;
56381;SDS011;50261;51.150;4.470;2023-07-22T03:10:55;14.27;;;8.95;;
56381;SDS011;50261;51.150;4.470;2023-07-22T03:13:21;14.02;;;8.18;;
56381;SDS011;50261;51.150;4.470;2023-07-22T03:15:47;18.05;;;8.73;;
56381;SDS011;50261;51.150;4.470;2023-07-22T03:18:13;13.73;;;8.18;;
56381;SDS011;50261;51.150;4.470;2023-07-22T03:20:38;16.38;;;8.25;;
56381;SDS011;50261;51.150;4.470;2023-07-22T03:23:05;15.68;;;9.30;;
56381;SDS011;50261;51.150;4.470;2023-07-22T03:25:30;14.27;;;8.90;;
56381;SDS011;50261;51.150;4.470;2023-07-22T03:27:57;15.13;;;8.98;;
56381;SDS011;50261;51.150;4.470;2023-07-22T03:30:24;17.65;;;8.20;;
56381;SDS011;50261;51.150;4.470;2023-07-22T03:32:49;13.77;;;8.32;;
56381;SDS011;50261;51.150;4.470;2023-07-22T03:35:18;17.95;;;9.80;;
56381;SDS011;50261;51.150;4.470;2023-07-22T03:37:44;12.82;;;8.25;;
56381;SDS011;50261;51.150;4.470;2023-07-22T03:40:10;14.70;;;9.20;;
56381;SDS011;50261;51.150;4.470;2023-07-22T03:42:46;16.00;;;9.57;;
56381;SDS011;50261;51.150;4.470;2023-07-22T03:45:12;15.18;;;8.88;;
56381;SDS011;50261;51.150;4.470;2023-07-22T03:47:38;13.10;;;8.77;;
56381;SDS011;50261;51.150;4.470;2023-07-22T03:50:04;14.48;;;8.80;;
56381;SDS011;50261;51.150;4.470;2023-07-22T03:52:31;15.25;;;8.82;;
56381;SDS011;50261;51.150;4.470;2023-07-22T03:54:56;13.80;;;8.15;;
56381;SDS011;50261;51.150;4.470;2023-07-22T03:57:26;13.48;;;8.40;;
56381;SDS011;50261;51.150;4.470;2023-07-22T03:59:53;17.58;;;9.23;;
56381;SDS011;50261;51.150;4.470;2023-07-22T04:02:19;17.33;;;9.05;;
56381;SDS011;50261;51.150;4.470;2023-07-22T04:04:44;15.75;;;8.80;;
56381;SDS011;50261;51.150;4.470;2023-07-22T04:07:10;17.33;;;9.52;;
56381;SDS011;50261;51.150;4.470;2023-07-22T04:09:36;13.77;;;8.88;;
56381;SDS011;50261;51.150;4.470;2023-07-22T04:12:01;13.95;;;8.68;;
56381;SDS011;50261;51.150;4.470;2023-07-22T04:14:27;14.10;;;9.00;;
56381;SDS011;50261;51.150;4.470;2023-07-22T04:16:53;10.98;;;7.78;;
56381;SDS011;50261;51.150;4.470;2023-07-22T04:19:18;15.95;;;8.35;;
56381;SDS011;50261;51.150;4.470;2023-07-22T04:21:44;14.73;;;9.15;;
56381;SDS011;50261;51.150;4.470;2023-07-22T04:24:10;15.88;;;8.85;;
56381;SDS011;50261;51.150;4.470;2023-07-22T04:26:36;18.15;;;9.38;;
56381;SDS011;50261;51.150;4.470;2023-07-22T04:29:01;13.35;;;8.75;;
56381;SDS011;50261;51.150;4.470;2023-07-22T04:31:27;14.02;;;8.65;;
56381;SDS011;50261;51.150;4.470;2023-07-22T04:33:54;15.70;;;9.82;;
56381;SDS011;50261;51.150;4.470;2023-07-22T04:36:19;13.48;;;8.82;;
56381;SDS011;50261;51.150;4.470;2023-07-22T04:38:45;16.75;;;9.15;;
56381;SDS011;50261;51.150;4.470;2023-07-22T04:41:11;17.95;;;9.65;;
56381;SDS011;50261;51.150;4.470;2023-07-22T04:43:36;17.08;;;9.38;;
56381;SDS011;50261;51.150;4.470;2023-07-22T04:46:02;14.55;;;8.50;;
56381;SDS011;50261;51.150;4.470;2023-07-22T04:48:29;15.65;;;9.18;;
56381;SDS011;50261;51.150;4.470;2023-07-22T04:50:55;16.40;;;8.90;;
56381;SDS011;50261;51.150;4.470;2023-07-22T04:53:21;18.73;;;9.50;;
56381;SDS011;50261;51.150;4.470;2023-07-22T04:55:46;14.27;;;9.20;;
56381;SDS011;50261;51.150;4.470;2023-07-22T04:58:12;15.45;;;8.15;;
56381;SDS011;50261;51.150;4.470;2023-07-22T05:00:38;16.77;;;9.45;;
56381;SDS011;50261;51.150;4.470;2023-07-22T05:03:04;14.02;;;8.90;;
56381;SDS011;50261;51.150;4.470;2023-07-22T05:05:30;16.50;;;8.90;;
56381;SDS011;50261;51.150;4.470;2023-07-22T05:07:55;14.90;;;9.25;;
56381;SDS011;50261;51.150;4.470;2023-07-22T05:10:22;14.05;;;9.00;;
56381;SDS011;50261;51.150;4.470;2023-07-22T05:12:47;15.15;;;8.48;;
56381;SDS011;50261;51.150;4.470;2023-07-22T05:15:13;13.98;;;9.07;;
56381;SDS011;50261;51.150;4.470;2023-07-22T05:17:39;21.00;;;9.55;;
56381;SDS011;50261;51.150;4.470;2023-07-22T05:20:05;15.48;;;8.70;;
56381;SDS011;50261;51.150;4.470;2023-07-22T05:22:34;18.75;;;8.93;;
56381;SDS011;50261;51.150;4.470;2023-07-22T05:25:00;14.48;;;8.85;;
56381;SDS011;50261;51.150;4.470;2023-07-22T05:27:26;20.45;;;9.05;;
56381;SDS011;50261;51.150;4.470;2023-07-22T05:29:51;17.25;;;9.15;;
56381;SDS011;50261;51.150;4.470;2023-07-22T05:32:17;16.95;;;8.35;;
56381;SDS011;50261;51.150;4.470;2023-07-22T05:34:43;16.20;;;8.68;;
56381;SDS011;50261;51.150;4.470;2023-07-22T05:37:08;16.08;;;8.63;;
56381;SDS011;50261;51.150;4.470;2023-07-22T05:39:34;16.08;;;9.50;;
56381;SDS011;50261;51.150;4.470;2023-07-22T05:41:59;15.93;;;8.00;;
56381;SDS011;50261;51.150;4.470;2023-07-22T05:44:25;17.60;;;9.55;;
56381;SDS011;50261;51.150;4.470;2023-07-22T05:46:50;15.32;;;9.18;;
56381;SDS011;50261;51.150;4.470;2023-07-22T05:49:15;16.98;;;9.60;;
56381;SDS011;50261;51.150;4.470;2023-07-22T05:51:41;16.90;;;9.55;;
56381;SDS011;50261;51.150;4.470;2023-07-22T05:54:06;19.13;;;9.63;;
56381;SDS011;50261;51.150;4.470;2023-07-22T05:56:32;19.50;;;7.95;;
56381;SDS011;50261;51.150;4.470;2023-07-22T05:58:57;17.25;;;9.30;;
56381;SDS011;50261;51.150;4.470;2023-07-22T06:01:23;19.40;;;9.45;;
56381;SDS011;50261;51.150;4.470;2023-07-22T06:03:48;20.40;;;9.90;;
56381;SDS011;50261;51.150;4.470;2023-07-22T06:06:14;15.77;;;9.35;;
56381;SDS011;50261;51.150;4.470;2023-07-22T06:08:39;23.42;;;9.68;;
56381;SDS011;50261;51.150;4.470;2023-07-22T06:11:05;14.88;;;8.15;;
56381;SDS011;50261;51.150;4.470;2023-07-22T06:13:30;17.02;;;8.73;;
56381;SDS011;50261;51.150;4.470;2023-07-22T06:15:56;19.90;;;9.75;;
56381;SDS011;50261;51.150;4.470;2023-07-22T06:18:21;18.95;;;9.15;;
56381;SDS011;50261;51.150;4.470;2023-07-22T06:20:47;14.63;;;9.27;;
56381;SDS011;50261;51.150;4.470;2023-07-22T06:23:12;17.42;;;9.20;;
56381;SDS011;50261;51.150;4.470;2023-07-22T06:25:38;18.73;;;9.68;;
56381;SDS011;50261;51.150;4.470;2023-07-22T06:28:04;17.75;;;8.98;;
56381;SDS011;50261;51.150;4.470;2023-07-22T06:30:29;16.92;;;8.82;;
56381;SDS011;50261;51.150;4.470;2023-07-22T06:32:55;16.63;;;8.48;;
56381;SDS011;50261;51.150;4.470;2023-07-22T06:35:20;18.17;;;8.55;;
56381;SDS011;50261;51.150;4.470;2023-07-22T06:37:46;16.65;;;9.40;;
56381;SDS011;50261;51.150;4.470;2023-07-22T06:40:12;16.65;;;9.48;;
56381;SDS011;50261;51.150;4.470;2023-07-22T06:42:37;20.33;;;8.95;;
56381;SDS011;50261;51.150;4.470;2023-07-22T06:45:04;17.45;;;8.60;;
56381;SDS011;50261;51.150;4.470;2023-07-22T06:47:29;16.35;;;8.18;;
56381;SDS011;50261;51.150;4.470;2023-07-22T06:49:55;16.77;;;8.57;;
56381;SDS011;50261;51.150;4.470;2023-07-22T06:52:20;15.43;;;8.38;;
56381;SDS011;50261;51.150;4.470;2023-07-22T06:54:46;16.73;;;8.30;;
56381;SDS011;50261;51.150;4.470;2023-07-22T06:57:11;19.33;;;8.85;;
56381;SDS011;50261;51.150;4.470;2023-07-22T06:59:37;16.75;;;7.72;;
56381;SDS011;50261;51.150;4.470;2023-07-22T07:02:03;15.32;;;7.72;;
56381;SDS011;50261;51.150;4.470;2023-07-22T07:04:30;19.73;;;8.43;;
56381;SDS011;50261;51.150;4.470;2023-07-22T07:06:55;16.75;;;7.70;;
56381;SDS011;50261;51.150;4.470;2023-07-22T07:09:21;15.68;;;7.57;;
56381;SDS011;50261;51.150;4.470;2023-07-22T07:11:46;17.88;;;8.60;;
56381;SDS011;50261;51.150;4.470;2023-07-22T07:14:12;16.88;;;7.60;;
56381;SDS011;50261;51.150;4.470;2023-07-22T07:16:37;16.13;;;8.20;;
56381;SDS011;50261;51.150;4.470;2023-07-22T07:19:03;14.80;;;7.22;;
56381;SDS011;50261;51.150;4.470;2023-07-22T07:21:29;14.35;;;7.63;;
56381;SDS011;50261;51.150;4.470;2023-07-22T07:23:55;12.75;;;7.40;;
56381;SDS011;50261;51.150;4.470;2023-07-22T07:26:20;13.68;;;7.00;;
56381;SDS011;50261;51.150;4.470;2023-07-22T07:28:47;13.35;;;7.00;;
56381;SDS011;50261;51.150;4.470;2023-07-22T07:31:12;14.43;;;7.28;;
56381;SDS011;50261;51.150;4.470;2023-07-22T07:33:38;16.63;;;7.90;;
56381;SDS011;50261;51.150;4.470;2023-07-22T07:36:03;13.45;;;7.25;;
56381;SDS011;50261;51.150;4.470;2023-07-22T07:38:29;18.55;;;7.22;;
56381;SDS011;50261;51.150;4.470;2023-07-22T07:40:58;18.25;;;6.60;;
56381;SDS011;50261;51.150;4.470;2023-07-22T07:43:24;17.27;;;6.90;;
56381;SDS011;50261;51.150;4.470;2023-07-22T07:45:50;15.27;;;6.60;;
56381;SDS011;50261;51.150;4.470;2023-07-22T07:48:16;13.20;;;6.35;;
56381;SDS011;50261;51.150;4.470;2023-07-22T07:50:42;12.85;;;6.65;;
56381;SDS011;50261;51.150;4.470;2023-07-22T07:53:08;12.80;;;6.07;;
56381;SDS011;50261;51.150;4.470;2023-07-22T07:55:34;14.02;;;7.10;;
56381;SDS011;50261;51.150;4.470;2023-07-22T07:57:59;11.52;;;5.97;;
56381;SDS011;50261;51.150;4.470;2023-07-22T08:00:25;11.05;;;4.80;;
56381;SDS011;50261;51.150;4.470;2023-07-22T08:02:50;13.73;;;6.13;;
56381;SDS011;50261;51.150;4.470;2023-07-22T08:05:16;10.25;;;5.40;;
56381;SDS011;50261;51.150;4.470;2023-07-22T08:07:42;17.48;;;5.88;;
56381;SDS011;50261;51.150;4.470;2023-07-22T08:10:08;14.57;;;5.07;;
56381;SDS011;50261;51.150;4.470;2023-07-22T08:12:34;16.15;;;5.70;;
56381;SDS011;50261;51.150;4.470;2023-07-22T08:15:00;13.02;;;5.45;;
56381;SDS011;50261;51.150;4.470;2023-07-22T08:17:26;7.95;;;5.15;;
56381;SDS011;50261;51.150;4.470;2023-07-22T08:19:52;9.00;;;4.40;;
56381;SDS011;50261;51.150;4.470;2023-07-22T08:22:18;12.55;;;5.00;;
56381;SDS011;50261;51.150;4.470;2023-07-22T08:24:43;13.48;;;5.18;;
56381;SDS011;50261;51.150;4.470;2023-07-22T08:27:09;14.98;;;5.15;;
56381;SDS011;50261;51.150;4.470;2023-07-22T08:29:35;10.98;;;5.35;;
56381;SDS011;50261;51.150;4.470;2023-07-22T08:32:01;10.63;;;5.15;;
56381;SDS011;50261;51.150;4.470;2023-07-22T08:34:27;8.80;;;4.20;;
56381;SDS011;50261;51.150;4.470;2023-07-22T08:36:53;9.15;;;4.95;;
56381;SDS011;50261;51.150;4.470;2023-07-22T08:39:18;11.70;;;4.63;;
56381;SDS011;50261;51.150;4.470;2023-07-22T08:41:48;12.05;;;4.75;;
56381;SDS011;50261;51.150;4.470;2023-07-22T08:44:18;9.30;;;4.28;;
56381;SDS011;50261;51.150;4.470;2023-07-22T08:46:44;9.48;;;4.50;;
56381;SDS011;50261;51.150;4.470;2023-07-22T08:49:11;10.02;;;5.78;;
56381;SDS011;50261;51.150;4.470;2023-07-22T08:51:36;9.30;;;4.72;;
56381;SDS011;50261;51.150;4.470;2023-07-22T08:54:02;10.13;;;4.90;;
56381;SDS011;50261;51.150;4.470;2023-07-22T08:56:31;12.07;;;4.70;;
56381;SDS011;50261;51.150;4.470;2023-07-22T08:58:57;11.50;;;4.75;;
56381;SDS011;50261;51.150;4.470;2023-07-22T09:01:23;10.15;;;4.43;;
56381;SDS011;50261;51.150;4.470;2023-07-22T09:03:49;9.82;;;4.93;;
56381;SDS011;50261;51.150;4.470;2023-07-22T09:06:18;9.73;;;4.30;;
56381;SDS011;50261;51.150;4.470;2023-07-22T09:08:45;10.13;;;4.25;;
56381;SDS011;50261;51.150;4.470;2023-07-22T09:11:10;8.20;;;4.45;;
56381;SDS011;50261;51.150;4.470;2023-07-22T09:13:36;11.05;;;4.05;;
56381;SDS011;50261;51.150;4.470;2023-07-22T09:16:05;5.75;;;3.05;;
56381;SDS011;50261;51.150;4.470;2023-07-22T09:18:34;11.90;;;3.78;;
56381;SDS011;50261;51.150;4.470;2023-07-22T09:21:00;7.90;;;3.63;;
56381;SDS011;50261;51.150;4.470;2023-07-22T09:23:32;7.07;;;3.50;;
56381;SDS011;50261;51.150;4.470;2023-07-22T09:26:07;10.75;;;3.70;;
56381;SDS011;50261;51.150;4.470;2023-07-22T09:31:19;6.68;;;3.08;;
56381;SDS011;50261;51.150;4.470;2023-07-22T09:33:45;8.65;;;2.42;;
56381;SDS011;50261;51.150;4.470;2023-07-22T09:36:11;4.63;;;2.97;;
56381;SDS011;50261;51.150;4.470;2023-07-22T09:38:37;6.15;;;2.70;;
56381;SDS011;50261;51.150;4.470;2023-07-22T09:41:03;4.50;;;2.83;;
56381;SDS011;50261;51.150;4.470;2023-07-22T09:43:29;8.00;;;2.70;;
56381;SDS011;50261;51.150;4.470;2023-07-22T09:45:55;5.65;;;2.50;;
56381;SDS011;50261;51.150;4.470;2023-07-22T09:48:21;7.50;;;2.15;;
56381;SDS011;50261;51.150;4.470;2023-07-22T09:50:57;5.00;;;2.10;;
56381;SDS011;50261;51.150;4.470;2023-07-22T09:53:23;7.25;;;2.08;;
56381;SDS011;50261;51.150;4.470;2023-07-22T09:55:48;4.15;;;2.00;;
56381;SDS011;50261;51.150;4.470;2023-07-22T09:58:17;4.95;;;2.10;;
56381;SDS011;50261;51.150;4.470;2023-07-22T10:00:46;6.47;;;1.92;;
56381;SDS011;50261;51.150;4.470;2023-07-22T10:03:13;4.82;;;2.03;;
56381;SDS011;50261;51.150;4.470;2023-07-22T10:05:41;7.93;;;1.83;;
56381;SDS011;50261;51.150;4.470;2023-07-22T10:08:07;7.05;;;2.13;;
56381;SDS011;50261;51.150;4.470;2023-07-22T10:10:35;4.40;;;1.95;;
56381;SDS011;50261;51.150;4.470;2023-07-22T10:13:01;3.67;;;1.58;;
56381;SDS011;50261;51.150;4.470;2023-07-22T10:15:31;3.92;;;2.05;;
56381;SDS011;50261;51.150;4.470;2023-07-22T10:18:01;3.38;;;1.88;;
56381;SDS011;50261;51.150;4.470;2023-07-22T10:20:27;4.90;;;2.40;;
56381;SDS011;50261;51.150;4.470;2023-07-22T10:22:53;4.25;;;1.80;;
56381;SDS011;50261;51.150;4.470;2023-07-22T10:25:20;6.88;;;1.67;;
56381;SDS011;50261;51.150;4.470;2023-07-22T10:27:46;6.28;;;1.80;;
56381;SDS011;50261;51.150;4.470;2023-07-22T10:30:13;8.75;;;2.20;;
56381;SDS011;50261;51.150;4.470;2023-07-22T10:32:41;2.78;;;1.50;;
56381;SDS011;50261;51.150;4.470;2023-07-22T10:35:08;1.65;;;1.30;;
56381;SDS011;50261;51.150;4.470;2023-07-22T10:37:35;4.28;;;1.90;;
56381;SDS011;50261;51.150;4.470;2023-07-22T10:40:47;4.72;;;1.65;;
56381;SDS011;50261;51.150;4.470;2023-07-22T10:42:57;2.88;;;1.33;;
56381;SDS011;50261;51.150;4.470;2023-07-22T10:48:05;3.42;;;1.30;;
56381;SDS011;50261;51.150;4.470;2023-07-22T10:50:41;2.92;;;1.30;;
56381;SDS011;50261;51.150;4.470;2023-07-22T10:53:11;2.22;;;1.23;;
56381;SDS011;50261;51.150;4.470;2023-07-22T10:58:22;2.83;;;1.23;;
56381;SDS011;50261;51.150;4.470;2023-07-22T11:00:49;4.03;;;1.05;;
56381;SDS011;50261;51.150;4.470;2023-07-22T11:03:14;2.78;;;1.52;;
56381;SDS011;50261;51.150;4.470;2023-07-22T11:05:50;3.78;;;1.50;;
56381;SDS011;50261;51.150;4.470;2023-07-22T11:08:16;4.50;;;1.42;;
56381;SDS011;50261;51.150;4.470;2023-07-22T11:10:52;3.15;;;1.38;;
56381;SDS011;50261;51.150;4.470;2023-07-22T11:13:18;3.50;;;1.45;;
56381;SDS011;50261;51.150;4.470;2023-07-22T11:15:48;3.17;;;1.40;;
56381;SDS011;50261;51.150;4.470;2023-07-22T11:18:13;2.97;;;1.40;;
56381;SDS011;50261;51.150;4.470;2023-07-22T11:20:39;4.18;;;1.55;;
56381;SDS011;50261;51.150;4.470;2023-07-22T11:23:05;2.50;;;1.10;;
56381;SDS011;50261;51.150;4.470;2023-07-22T11:25:33;3.30;;;1.10;;
56381;SDS011;50261;51.150;4.470;2023-07-22T11:27:59;2.58;;;1.13;;
56381;SDS011;50261;51.150;4.470;2023-07-22T11:30:24;1.65;;;0.93;;
56381;SDS011;50261;51.150;4.470;2023-07-22T11:32:50;2.33;;;1.00;;
56381;SDS011;50261;51.150;4.470;2023-07-22T11:35:15;4.57;;;1.60;;
56381;SDS011;50261;51.150;4.470;2023-07-22T11:37:42;4.32;;;1.30;;
56381;SDS011;50261;51.150;4.470;2023-07-22T11:40:11;3.50;;;1.30;;
56381;SDS011;50261;51.150;4.470;2023-07-22T11:42:36;3.20;;;1.08;;
56381;SDS011;50261;51.150;4.470;2023-07-22T11:45:03;3.33;;;1.08;;
56381;SDS011;50261;51.150;4.470;2023-07-22T11:47:29;2.47;;;1.05;;
56381;SDS011;50261;51.150;4.470;2023-07-22T11:49:58;3.42;;;1.38;;
56381;SDS011;50261;51.150;4.470;2023-07-22T11:52:24;2.20;;;1.05;;
56381;SDS011;50261;51.150;4.470;2023-07-22T11:54:49;5.15;;;1.33;;
56381;SDS011;50261;51.150;4.470;2023-07-22T11:57:20;2.45;;;1.30;;
56381;SDS011;50261;51.150;4.470;2023-07-22T11:59:50;3.10;;;1.40;;
56381;SDS011;50261;51.150;4.470;2023-07-22T12:02:16;2.85;;;1.50;;
56381;SDS011;50261;51.150;4.470;2023-07-22T12:04:42;3.92;;;1.27;;
56381;SDS011;50261;51.150;4.470;2023-07-22T12:10:07;2.33;;;1.02;;
56381;SDS011;50261;51.150;4.470;2023-07-22T12:12:37;4.05;;;1.10;;
56381;SDS011;50261;51.150;4.470;2023-07-22T12:17:48;3.78;;;1.35;;
56381;SDS011;50261;51.150;4.470;2023-07-22T12:20:14;4.95;;;1.23;;
56381;SDS011;50261;51.150;4.470;2023-07-22T12:22:41;3.47;;;1.40;;
56381;SDS011;50261;51.150;4.470;2023-07-22T12:25:06;2.15;;;1.40;;
56381;SDS011;50261;51.150;4.470;2023-07-22T12:27:32;3.20;;;1.10;;
56381;SDS011;50261;51.150;4.470;2023-07-22T12:29:58;2.25;;;1.30;;
56381;SDS011;50261;51.150;4.470;2023-07-22T12:32:23;2.40;;;1.33;;
56381;SDS011;50261;51.150;4.470;2023-07-22T12:34:49;3.38;;;1.30;;
56381;SDS011;50261;51.150;4.470;2023-07-22T12:37:15;2.88;;;1.55;;
56381;SDS011;50261;51.150;4.470;2023-07-22T12:39:41;3.20;;;1.65;;
56381;SDS011;50261;51.150;4.470;2023-07-22T12:42:06;3.40;;;1.30;;
56381;SDS011;50261;51.150;4.470;2023-07-22T12:44:32;2.70;;;1.38;;
56381;SDS011;50261;51.150;4.470;2023-07-22T12:46:58;1.90;;;1.00;;
56381;SDS011;50261;51.150;4.470;2023-07-22T12:49:23;3.45;;;1.70;;
56381;SDS011;50261;51.150;4.470;2023-07-22T12:51:49;2.25;;;1.10;;
56381;SDS011;50261;51.150;4.470;2023-07-22T12:54:15;2.83;;;1.52;;
56381;SDS011;50261;51.150;4.470;2023-07-22T12:56:41;2.17;;;1.10;;
56381;SDS011;50261;51.150;4.470;2023-07-22T12:59:08;2.92;;;1.08;;
56381;SDS011;50261;51.150;4.470;2023-07-22T13:01:34;3.05;;;1.58;;
56381;SDS011;50261;51.150;4.470;2023-07-22T13:04:04;3.60;;;1.75;;
56381;SDS011;50261;51.150;4.470;2023-07-22T13:06:30;4.95;;;1.40;;
56381;SDS011;50261;51.150;4.470;2023-07-22T13:08:55;2.00;;;1.33;;
56381;SDS011;50261;51.150;4.470;2023-07-22T13:11:21;3.58;;;1.17;;
56381;SDS011;50261;51.150;4.470;2023-07-22T13:13:47;5.00;;;1.60;;
56381;SDS011;50261;51.150;4.470;2023-07-22T13:16:12;2.60;;;1.55;;
56381;SDS011;50261;51.150;4.470;2023-07-22T13:18:38;3.75;;;1.45;;
56381;SDS011;50261;51.150;4.470;2023-07-22T13:21:04;4.10;;;1.40;;
56381;SDS011;50261;51.150;4.470;2023-07-22T13:23:29;3.67;;;2.00;;
56381;SDS011;50261;51.150;4.470;2023-07-22T13:25:55;2.33;;;1.58;;
56381;SDS011;50261;51.150;4.470;2023-07-22T13:28:21;4.13;;;1.52;;
56381;SDS011;50261;51.150;4.470;2023-07-22T13:30:46;5.07;;;1.90;;
56381;SDS011;50261;51.150;4.470;2023-07-22T13:33:12;4.75;;;1.70;;
56381;SDS011;50261;51.150;4.470;2023-07-22T13:35:38;2.53;;;1.33;;
56381;SDS011;50261;51.150;4.470;2023-07-22T13:38:03;2.60;;;1.23;;
56381;SDS011;50261;51.150;4.470;2023-07-22T13:40:29;4.43;;;1.65;;
56381;SDS011;50261;51.150;4.470;2023-07-22T13:42:54;3.15;;;1.42;;
56381;SDS011;50261;51.150;4.470;2023-07-22T13:45:20;4.03;;;1.45;;
56381;SDS011;50261;51.150;4.470;2023-07-22T13:47:46;4.95;;;1.67;;
56381;SDS011;50261;51.150;4.470;2023-07-22T13:50:12;3.58;;;1.58;;
56381;SDS011;50261;51.150;4.470;2023-07-22T13:52:37;1.80;;;1.17;;
56381;SDS011;50261;51.150;4.470;2023-07-22T13:55:03;2.33;;;1.15;;
56381;SDS011;50261;51.150;4.470;2023-07-22T13:57:29;3.03;;;1.42;;
56381;SDS011;50261;51.150;4.470;2023-07-22T13:59:55;5.20;;;1.73;;
56381;SDS011;50261;51.150;4.470;2023-07-22T14:02:20;4.60;;;1.50;;
56381;SDS011;50261;51.150;4.470;2023-07-22T14:04:46;3.40;;;1.50;;
56381;SDS011;50261;51.150;4.470;2023-07-22T14:07:12;4.05;;;1.50;;
56381;SDS011;50261;51.150;4.470;2023-07-22T14:09:38;3.72;;;2.10;;
56381;SDS011;50261;51.150;4.470;2023-07-22T14:12:04;3.97;;;1.50;;
56381;SDS011;50261;51.150;4.470;2023-07-22T14:14:30;1.92;;;1.35;;
56381;SDS011;50261;51.150;4.470;2023-07-22T14:16:55;2.17;;;1.40;;
56381;SDS011;50261;51.150;4.470;2023-07-22T14:19:21;4.78;;;1.40;;
56381;SDS011;50261;51.150;4.470;2023-07-22T14:21:47;2.17;;;1.58;;
56381;SDS011;50261;51.150;4.470;2023-07-22T14:24:13;6.57;;;1.80;;
56381;SDS011;50261;51.150;4.470;2023-07-22T14:26:38;3.53;;;1.50;;
56381;SDS011;50261;51.150;4.470;2023-07-22T14:29:04;5.70;;;1.48;;
56381;SDS011;50261;51.150;4.470;2023-07-22T14:31:30;2.08;;;1.25;;
56381;SDS011;50261;51.150;4.470;2023-07-22T14:33:55;4.00;;;1.63;;
56381;SDS011;50261;51.150;4.470;2023-07-22T14:36:21;2.88;;;1.48;;
56381;SDS011;50261;51.150;4.470;2023-07-22T14:38:47;5.32;;;1.27;;
56381;SDS011;50261;51.150;4.470;2023-07-22T14:41:12;5.65;;;1.67;;
56381;SDS011;50261;51.150;4.470;2023-07-22T14:43:38;3.25;;;1.60;;
56381;SDS011;50261;51.150;4.470;2023-07-22T14:46:04;4.63;;;1.23;;
56381;SDS011;50261;51.150;4.470;2023-07-22T14:48:29;3.05;;;1.30;;